Latest Weather Observations for Adelaide (Kent Town)

IDS60801

Issued at 6:02 pm CST Sunday 24 September 2017 (issued every 30 minutes, with the page automatically refreshed every 10 minutes)

About weather observations | Map of weather stations | Latest weather observations for SA | Other Formats
Station Details ID: 023090 Name: KENT TOWN Lat: -34.92 Lon: 138.62 Height: 48.0 m
Data from the previous 72 hours. | See also: Recent months at Adelaide (Kent Town)
Date/Time
CST
Temp
°C
App
Temp
°C
Dew
Point
°C
Rel
Hum
%
Delta-T
°C
Wind Press
QNH
hPa
Press
MSL
hPa
Rain since
9am
mm
Dir  Spd
km/h
Gust
km/h
Spd
kts
Gust
kts
24/06:00pm 15.2 11.6 6.6 56 4.2 W 15 24 8 13 1008.3 1008.3 0.2
24/05:30pm 15.8 11.8 6.6 54 4.5 W 17 35 9 19 1007.9 1007.9 0.2
24/05:00pm 16.1 11.4 5.0 47 5.3 W 19 37 10 20 1007.5 1007.5 0.2
24/04:30pm 17.0 12.5 6.2 49 5.3 W 19 33 10 18 1007.1 1007.1 0.2
24/04:00pm 17.3 12.4 5.3 45 5.8 WNW 20 33 11 18 1006.9 1006.9 0.2
24/03:30pm 17.4 12.0 4.6 42 6.1 W 22 39 12 21 1006.6 1006.6 0.2
24/03:00pm 17.4 11.7 4.9 43 6.0 W 24 46 13 25 1006.6 1006.6 0.2
24/02:30pm 17.3 12.8 7.1 51 5.1 W 20 44 11 24 1006.6 1006.6 0.2
24/02:00pm 17.4 12.6 7.3 51 5.1 W 22 44 12 24 1006.5 1006.4 0.2
24/01:30pm 17.7 13.2 6.9 49 5.4 WNW 20 39 11 21 1006.4 1006.3 0.2
24/01:00pm 17.2 12.0 7.3 52 5.0 W 24 46 13 25 1006.5 1006.4 0.2
24/12:30pm 14.5 10.8 10.3 76 2.2 W 20 39 11 21 1006.6 1006.6 0.2
24/12:00pm 17.1 12.4 7.6 53 4.8 W 22 39 12 21 1006.3 1006.2 0.0
24/11:30am 16.6 11.5 7.5 55 4.6 WNW 24 43 13 23 1006.3 1006.2 0.0
24/11:00am 16.2 11.8 7.4 56 4.4 W 20 35 11 19 1006.1 1006.0 0.0
24/10:30am 14.8 10.1 7.6 62 3.6 WNW 22 41 12 22 1006.0 1005.9 0.0
24/10:00am 15.3 11.2 7.7 60 3.8 NW 19 32 10 17 1006.0 1005.9 0.0
24/09:30am 15.5 11.2 8.0 61 3.8 NW 20 32 11 17 1006.2 1006.1 0.0
24/09:00am 14.8 10.8 8.3 65 3.3 NW 19 35 10 19 1006.0 1005.9 0.0
24/08:30am 14.0 9.8 8.4 69 2.8 NNW 20 37 11 20 1005.9 1005.8 0.0
24/08:00am 14.2 10.4 8.9 70 2.7 NW 19 33 10 18 1005.5 1005.4 0.0
24/07:30am 13.7 10.6 8.8 72 2.5 NW 15 30 8 16 1005.3 1005.2 0.0
24/07:00am 13.4 9.9 8.9 74 2.3 NW 17 28 9 15 1005.1 1005.0 0.0
24/06:30am 13.2 10.5 9.1 76 2.1 NW 13 20 7 11 1004.9 1004.8 0.0
24/06:00am 13.2 10.2 9.3 77 2.0 NW 15 26 8 14 1004.7 1004.6 0.0
24/05:30am 13.2 10.5 9.1 76 2.1 NW 13 20 7 11 1004.4 1004.3 0.0
24/05:00am 13.3 10.2 9.0 75 2.2 NW 15 24 8 13 1004.1 1004.0 0.0
24/04:30am 13.4 10.7 8.9 74 2.3 WNW 13 22 7 12 1003.9 1003.8 0.0
24/04:00am 13.3 10.3 9.2 76 2.1 WNW 15 24 8 13 1003.6 1003.5 0.0
24/03:30am 13.5 11.0 9.6 77 2.0 WNW 13 20 7 11 1003.6 1003.5 0.0
24/03:00am 13.8 10.7 10.2 79 1.9 WNW 17 30 9 16 1003.6 1003.5 0.0
24/02:30am 13.9 11.9 10.3 79 1.9 WNW 11 20 6 11 1003.6 1003.5 0.0
24/02:00am 13.8 11.5 10.4 80 1.8 WNW 13 24 7 13 1003.6 1003.5 0.0
24/01:30am 13.9 11.5 10.1 78 2.0 WNW 13 24 7 13 1004.0 1003.9 0.0
24/01:00am 14.1 11.7 10.1 77 2.1 NW 13 24 7 13 1004.0 1003.9 0.0
24/12:30am 14.3 12.2 9.9 75 2.3 NW 11 20 6 11 1004.4 1004.3 0.0
24/12:00am 14.3 11.4 9.7 74 2.4 WNW 15 32 8 17 1004.8 1004.7 0.0
 
Date/Time
CST
Temp
°C
App
Temp
°C
Dew
Point
°C
Rel
Hum
%
Delta-T
°C
Wind Press
QNH
hPa
Press
MSL
hPa
Rain since
9am
mm
Dir  Spd
km/h
Gust
km/h
Spd
kts
Gust
kts
23/11:30pm 14.4 11.9 9.8 74 2.4 NW 13 22 7 12 1005.0 1004.9 0.0
23/11:00pm 14.5 12.0 9.7 73 2.5 NW 13 26 7 14 1005.0 1004.9 0.0
23/10:30pm 14.7 12.1 9.3 70 2.8 WNW 13 26 7 14 1005.0 1004.9 0.0
23/10:00pm 14.8 11.8 9.2 69 2.9 WNW 15 30 8 16 1005.2 1005.1 0.0
23/09:30pm 15.0 11.7 9.4 69 2.9 WNW 17 28 9 15 1005.2 1005.1 0.0
23/09:00pm 15.0 12.0 9.2 68 3.0 WNW 15 28 8 15 1005.2 1005.1 0.0
23/08:30pm 15.1 12.5 9.3 68 3.0 WNW 13 24 7 13 1005.4 1005.3 0.0
23/08:00pm 15.3 13.1 9.5 68 3.0 WNW 11 20 6 11 1005.3 1005.2 0.0
23/07:30pm 15.5 12.9 9.3 66 3.2 WNW 13 26 7 14 1004.9 1004.8 0.0
23/07:00pm 15.7 12.7 9.1 65 3.4 W 15 24 8 13 1004.4 1004.3 0.0
23/06:30pm 15.9 12.9 9.4 65 3.4 W 15 20 8 11 1004.1 1004.0 0.0
23/06:00pm 16.6 13.1 8.9 60 4.0 W 17 30 9 16 1003.8 1003.7 0.0
23/05:30pm 17.3 13.3 8.1 54 4.7 W 19 30 10 16 1003.5 1003.4 0.0
23/05:00pm 18.0 13.7 7.8 51 5.2 W 20 39 11 21 1003.3 1003.2 0.0
23/04:30pm 19.0 14.7 8.0 49 5.7 W 20 35 11 19 1003.3 1003.2 0.0
23/04:00pm 19.1 14.1 8.1 49 5.7 WNW 24 44 13 24 1003.3 1003.2 0.0
23/03:30pm 19.5 14.8 7.9 47 6.0 W 22 41 12 22 1003.0 1002.9 0.0
23/03:00pm 20.0 15.9 8.8 48 5.9 W 20 39 11 21 1002.8 1002.7 0.0
23/02:30pm 19.6 16.0 8.5 48 5.8 WNW 17 39 9 21 1002.3 1002.2 0.0
23/02:00pm 20.9 16.9 9.1 46 6.3 WNW 20 41 11 22 1002.0 1001.9 0.0
23/01:30pm 21.1 16.4 9.4 47 6.3 WNW 24 39 13 21 1001.6 1001.5 0.0
23/01:01pm 20.8 15.1 9.9 49 5.9 W 30 50 16 27 1001.3 1001.2 0.0
23/01:00pm 21.0 15.8 10.4 50 5.8 W 28 43 15 23 1001.3 1001.2 0.0
23/12:37pm 20.7 15.6 10.5 52 5.6 W 28 59 15 32 1001.2 1001.1 0.0
23/12:30pm 21.3 17.0 10.8 51 5.8 W 24 41 13 22 1000.9 1000.8 0.0
23/12:03pm 21.7 16.6 10.7 49 6.0 W 28 46 15 25 1000.3 1000.2 0.0
23/12:00pm 21.7 17.4 10.7 49 6.1 WNW 24 46 13 25 1000.3 1000.2 0.0
23/11:44am 22.4 17.3 10.7 47 6.5 WNW 28 50 15 27 999.9 999.8 0.0
23/11:30am 23.0 19.0 10.6 45 6.9 WNW 22 43 12 23 999.3 999.3 0.0
23/11:00am 22.4 19.2 11.1 48 6.3 NNW 19 32 10 17 998.7 998.7 0.0
23/10:30am 21.8 19.3 11.2 51 5.9 NNW 15 26 8 14 998.0 998.0 0.0
23/10:00am 20.8 18.3 12.3 58 4.8 N 17 28 9 15 998.0 998.0 0.0
23/09:30am 20.5 18.4 11.1 54 5.2 N 13 20 7 11 997.8 997.8 0.0
23/09:00am 20.4 18.0 10.1 51 5.6 NNE 13 19 7 10 997.6 997.6 0.0
23/08:30am 19.7 17.7 8.7 49 5.8 ENE 9 15 5 8 996.9 996.9 0.0
23/08:00am 18.8 17.7 9.9 56 4.7 ENE 6 11 3 6 996.6 996.6 0.0
23/07:30am 17.6 17.7 10.1 61 4.0 CALM 0 4 0 2 996.5 996.5 0.0
23/07:00am 16.7 15.6 10.6 67 3.3 E 7 9 4 5 995.8 995.8 0.0
23/06:30am 16.2 14.3 10.4 68 3.1 W 11 22 6 12 995.6 995.6 0.0
23/06:00am 15.7 15.3 9.8 68 3.1 SW 2 7 1 4 994.8 994.8 0.0
23/05:30am 15.7 15.4 10.2 70 2.9 SW 2 7 1 4 994.7 994.7 0.0
23/05:00am 16.3 16.0 10.1 66 3.3 N 2 7 1 4 995.1 995.1 0.0
23/04:30am 16.5 15.8 9.9 65 3.5 W 4 7 2 4 994.9 994.9 0.0
23/04:00am 17.7 16.8 9.4 58 4.4 SE 4 11 2 6 996.2 996.2 0.0
23/03:30am 18.2 16.7 9.3 56 4.7 NNE 7 13 4 7 997.2 997.2 0.0
23/03:00am 17.9 16.7 9.6 58 4.4 SE 6 11 3 6 997.2 997.2 0.0
23/02:30am 18.8 17.4 9.4 54 5.0 NNW 7 17 4 9 999.1 999.1 0.0
23/02:00am 18.9 17.1 9.3 53 5.1 S 9 15 5 8 999.3 999.3 0.0
23/01:30am 18.1 17.1 10.3 60 4.2 NNW 6 11 3 6 998.4 998.4 0.0
23/01:00am 18.6 16.8 9.6 55 4.8 NE 9 15 5 8 998.6 998.6 0.0
23/12:30am 18.8 16.8 10.1 57 4.7 ENE 11 15 6 8 1000.3 1000.2 0.0
23/12:25am 18.8 17.5 10.1 57 4.7 ENE 7 15 4 8 1000.3 1000.2 0.0
23/12:00am 18.9 17.4 10.4 57 4.6 SW 9 19 5 10 1002.3 1002.2 0.0
 
Date/Time
CST
Temp
°C
App
Temp
°C
Dew
Point
°C
Rel
Hum
%
Delta-T
°C
Wind Press
QNH
hPa
Press
MSL
hPa
Rain since
9am
mm
Dir  Spd
km/h
Gust
km/h
Spd
kts
Gust
kts
22/11:30pm 20.0 18.5 9.3 50 5.7 WNW 7 11 4 6 1002.3 1002.2 0.0
22/11:00pm 21.1 19.1 8.7 45 6.5 S 9 17 5 9 1003.0 1002.9 0.0
22/10:30pm 19.6 20.0 11.1 58 4.7 CALM 0 4 0 2 1001.9 1001.8 0.0
22/10:00pm 20.1 20.1 11.2 56 4.9 WNW 2 7 1 4 1002.0 1001.9 0.0
22/09:30pm 21.3 20.4 10.6 50 5.9 N 6 11 3 6 1003.1 1003.0 0.0
22/09:00pm 22.4 19.5 9.5 43 7.0 N 15 39 8 21 1002.8 1002.7 0.0
22/08:30pm 20.9 20.4 9.3 47 6.2 S 2 7 1 4 1003.4 1003.3 0.0
22/08:00pm 20.7 20.8 10.0 50 5.8 CALM 0 6 0 3 1003.1 1003.0 0.0
22/07:30pm 21.5 21.5 9.9 47 6.3 CALM 0 0 0 0 1003.0 1002.9 0.0
22/07:00pm 22.5 21.1 9.4 43 7.1 S 7 9 4 5 1003.1 1003.0 0.0
22/06:30pm 23.9 23.9 9.7 40 7.8 CALM 0 6 0 3 1002.7 1002.6 0.0
22/06:00pm 25.8 25.5 8.7 34 9.3 CALM 0 0 0 0 1002.7 1002.6 0.0
22/05:30pm 27.7 26.2 6.9 26 11.1 N 4 7 2 4 1002.7 1002.6 0.0
22/05:00pm 28.4 25.7 5.4 23 12.0 N 9 15 5 8 1002.7 1002.6 0.0
22/04:30pm 29.3 26.5 5.2 21 12.6 NNW 9 15 5 8 1002.9 1002.8 0.0
22/04:00pm 29.7 26.4 4.4 20 13.0 NNW 11 19 6 10 1002.9 1002.8 0.0
22/03:30pm 30.2 26.6 5.0 20 13.2 NW 13 20 7 11 1003.4 1003.3 0.0
22/03:00pm 29.7 24.8 4.3 20 13.1 NW 19 35 10 19 1003.6 1003.5 0.0
22/02:30pm 29.7 25.1 5.7 22 12.7 NNW 19 30 10 16 1003.7 1003.6 0.0
22/02:00pm 29.5 25.7 7.4 25 12.0 NNW 17 30 9 16 1003.7 1003.6 0.0
22/01:30pm 29.0 25.5 7.1 25 11.8 NNW 15 26 8 14 1003.8 1003.7 0.0
22/01:00pm 28.6 25.7 9.5 30 10.7 N 15 26 8 14 1004.2 1004.1 0.0
22/12:30pm 27.7 24.4 6.6 26 11.2 N 13 24 7 13 1004.7 1004.6 0.0
22/12:00pm 27.2 24.0 8.6 31 10.2 N 15 24 8 13 1005.0 1004.9 0.0
22/11:30am 27.1 23.7 7.8 29 10.4 N 15 26 8 14 1005.5 1005.4 0.0
22/11:00am 25.7 22.9 6.9 30 9.9 N 11 17 6 9 1006.0 1005.9 0.0
22/10:30am 24.8 21.6 6.8 31 9.4 NNE 13 22 7 12 1006.6 1006.6 0.0
22/10:00am 23.7 20.5 6.7 33 8.8 NNE 13 20 7 11 1007.2 1007.2 0.0
22/09:30am 22.4 19.3 7.2 37 7.9 NE 13 22 7 12 1007.4 1007.4 0.0
22/09:00am 21.3 18.2 7.4 40 7.2 NNE 13 24 7 13 1007.7 1007.7 0.0
22/08:30am 20.1 17.8 8.9 48 5.9 NNE 11 20 6 11 1007.7 1007.7 0.0
22/08:00am 18.3 16.7 8.7 53 5.0 NE 7 17 4 9 1007.7 1007.7 0.0
22/07:30am 15.3 13.7 8.6 64 3.4 NNE 7 11 4 6 1007.7 1007.7 0.0
22/07:00am 12.8 12.1 8.4 74 2.2 NNE 2 6 1 3 1007.9 1007.9 0.0
22/06:30am 10.8 10.3 7.7 81 1.5 CALM 0 0 0 0 1007.9 1007.9 0.0
22/06:00am 10.4 9.8 7.5 82 1.4 CALM 0 7 0 4 1007.7 1007.7 0.0
22/05:30am 10.4 9.4 7.3 81 1.5 NE 2 6 1 3 1007.8 1007.8 0.0
22/05:00am 10.3 9.7 7.4 82 1.4 CALM 0 0 0 0 1007.9 1007.9 0.0
22/04:30am 10.5 9.5 7.2 80 1.6 NNE 2 6 1 3 1007.7 1007.7 0.0
22/04:00am 10.2 9.6 7.5 83 1.3 CALM 0 6 0 3 1008.0 1008.0 0.0
22/03:30am 10.4 9.5 7.7 83 1.3 NNE 2 6 1 3 1008.5 1008.5 0.0
22/03:00am 10.6 10.1 7.7 82 1.4 CALM 0 0 0 0 1008.7 1008.7 0.0
22/02:30am 11.0 10.6 8.1 82 1.4 CALM 0 0 0 0 1009.1 1009.1 0.0
22/02:00am 11.4 9.8 7.9 79 1.7 N 6 9 3 5 1009.7 1009.7 0.0
22/01:30am 11.1 10.6 7.8 80 1.6 CALM 0 0 0 0 1009.9 1009.9 0.0
22/01:00am 10.7 10.2 7.8 82 1.4 CALM 0 0 0 0 1010.3 1010.3 0.0
22/12:30am 11.1 10.7 8.2 82 1.4 CALM 0 0 0 0 1010.8 1010.8 0.0
22/12:00am 11.6 11.3 8.6 82 1.5 CALM 0 0 0 0 1011.0 1011.0 0.0
 
Date/Time
CST
Temp
°C
App
Temp
°C
Dew
Point
°C
Rel
Hum
%
Delta-T
°C
Wind Press
QNH
hPa
Press
MSL
hPa
Rain since
9am
mm
Dir  Spd
km/h
Gust
km/h
Spd
kts
Gust
kts
21/11:30pm 11.9 11.7 8.9 82 1.5 CALM 0 0 0 0 1011.2 1011.2 0.0
21/11:00pm 12.0 11.8 9.0 82 1.5 CALM 0 0 0 0 1011.1 1011.1 0.0
21/10:30pm 12.4 12.2 9.0 80 1.7 CALM 0 0 0 0 1011.3 1011.3 0.0
21/10:00pm 12.9 12.7 9.1 78 1.9 CALM 0 6 0 3 1011.7 1011.7 0.0
21/09:30pm 12.9 12.9 9.8 81 1.6 CALM 0 0 0 0 1012.0 1012.0 0.0
21/09:00pm 13.4 13.5 10.1 80 1.7 CALM 0 0 0 0 1012.0 1012.0 0.0
21/08:30pm 13.4 13.6 10.5 82 1.5 CALM 0 0 0 0 1011.9 1011.9 0.0
21/08:00pm 14.1 14.1 9.9 76 2.2 CALM 0 7 0 4 1011.8 1011.8 0.0
21/07:30pm 14.5 13.7 9.5 72 2.6 SW 4 7 2 4 1011.5 1011.5 0.0
21/07:00pm 15.3 14.1 9.7 69 2.9 SW 6 9 3 5 1011.2 1011.2 0.0
21/06:30pm 16.3 15.1 9.4 63 3.6 SW 6 11 3 6 1010.9 1010.9 0.0

Other Formats:

Comma delimited format used in spreadsheet applications
http://www.bom.gov.au/fwo/IDS60801/IDS60801.94675.axf

JavaScript Object Notation format (JSON) in row-major order
http://www.bom.gov.au/fwo/IDS60801/IDS60801.94675.json